createdAt,value
2018-12-16T00:03:20.832Z,11.87
2018-12-16T00:13:40.573Z,10.47
2018-12-16T00:18:53.952Z,9.63
2018-12-16T00:24:03.521Z,9.97
2018-12-16T00:29:12.485Z,8.73
2018-12-16T00:34:23.889Z,10.40
2018-12-16T00:39:33.784Z,9.67
2018-12-16T00:44:38.580Z,8.93
2018-12-16T00:50:02.900Z,11.03
2018-12-16T00:55:10.197Z,8.80
2018-12-16T01:00:13.963Z,10.93
2018-12-16T01:10:30.304Z,10.20
2018-12-16T01:15:37.582Z,7.97
2018-12-16T01:20:40.025Z,8.03
2018-12-16T01:25:42.649Z,7.93
2018-12-16T01:30:57.063Z,9.03
2018-12-16T01:35:59.528Z,9.37
2018-12-16T01:41:02.017Z,7.70
2018-12-16T01:46:04.842Z,7.30
2018-12-16T01:51:07.408Z,10.10
2018-12-16T01:56:09.860Z,9.70
2018-12-16T02:01:12.312Z,10.53
2018-12-16T02:06:14.880Z,10.33
2018-12-16T02:11:17.348Z,11.53
2018-12-16T02:16:19.800Z,8.97
2018-12-16T02:21:22.260Z,12.20
2018-12-16T02:26:24.732Z,10.07
2018-12-16T02:31:27.180Z,10.77
2018-12-16T02:36:29.660Z,7.73
2018-12-16T02:41:32.124Z,9.03
2018-12-16T02:46:34.589Z,5.63
2018-12-16T02:51:37.197Z,9.33
2018-12-16T02:56:39.717Z,11.37
2018-12-16T03:01:44.126Z,10.93
2018-12-16T03:06:46.837Z,10.90
2018-12-16T03:11:49.334Z,10.70
2018-12-16T03:16:51.769Z,11.37
2018-12-16T03:21:54.221Z,11.37
2018-12-16T03:26:56.786Z,11.57
2018-12-16T03:31:59.249Z,11.10
2018-12-16T03:37:01.708Z,9.63
2018-12-16T03:42:04.206Z,10.43
2018-12-16T03:47:06.793Z,10.73
2018-12-16T03:57:18.251Z,12.17
2018-12-16T04:02:20.706Z,11.13
2018-12-16T04:07:23.252Z,10.00
2018-12-16T04:12:25.713Z,11.37
2018-12-16T04:17:28.248Z,12.27
2018-12-16T04:22:30.774Z,12.70
2018-12-16T04:27:33.221Z,12.13
2018-12-16T04:32:35.688Z,11.30
2018-12-16T04:37:38.150Z,13.73
2018-12-16T04:42:40.640Z,15.07
2018-12-16T04:47:43.106Z,14.73
2018-12-16T04:52:45.561Z,15.53
2018-12-16T04:57:48.020Z,14.90
2018-12-16T05:02:50.481Z,13.63
2018-12-16T05:07:53.012Z,15.63
2018-12-16T05:12:55.506Z,14.40
2018-12-16T05:17:58.008Z,12.97
2018-12-16T05:23:00.551Z,13.03
2018-12-16T05:28:03.004Z,14.07
2018-12-16T05:33:05.630Z,12.83
2018-12-16T05:38:08.084Z,14.83
2018-12-16T05:43:10.544Z,16.40
2018-12-16T05:48:13.132Z,13.57
2018-12-16T05:53:15.700Z,13.27
2018-12-16T05:58:18.253Z,13.93
2018-12-16T06:03:20.720Z,11.47
2018-12-16T06:08:23.177Z,13.03
2018-12-16T06:13:25.752Z,12.00
2018-12-16T06:18:28.212Z,12.67
2018-12-16T06:23:30.882Z,14.50
2018-12-16T06:28:33.344Z,15.37
2018-12-16T06:33:35.813Z,14.43
2018-12-16T06:38:38.267Z,13.10
2018-12-16T06:43:40.724Z,13.33
2018-12-16T06:48:43.191Z,13.73
2018-12-16T06:53:45.715Z,12.77
2018-12-16T06:58:48.185Z,13.77
2018-12-16T07:03:50.644Z,13.20
2018-12-16T07:08:53.109Z,14.40
2018-12-16T07:13:55.590Z,13.67
2018-12-16T07:18:58.054Z,14.57
2018-12-16T07:24:00.619Z,12.83
2018-12-16T07:29:03.118Z,13.13
2018-12-16T07:34:05.709Z,14.97
2018-12-16T07:39:08.161Z,15.43
2018-12-16T07:44:10.651Z,12.87
2018-12-16T07:49:13.180Z,13.53
2018-12-16T07:54:16.183Z,18.10
2018-12-16T07:59:19.042Z,17.03
2018-12-16T08:04:21.518Z,16.07
2018-12-16T08:09:23.991Z,17.10
2018-12-16T08:14:27.622Z,10.80
2018-12-16T08:19:30.065Z,15.17
2018-12-16T08:24:32.629Z,16.23
2018-12-16T08:29:35.315Z,14.47
2018-12-16T08:34:37.768Z,18.03
2018-12-16T08:39:40.237Z,20.27
2018-12-16T08:44:42.698Z,16.43
2018-12-16T08:49:45.162Z,16.47
2018-12-16T08:54:47.612Z,16.93
2018-12-16T08:59:50.191Z,20.30
2018-12-16T09:04:52.632Z,19.43
2018-12-16T09:09:55.098Z,37.90
2018-12-16T09:14:57.561Z,19.97
2018-12-16T09:20:00.080Z,21.70
2018-12-16T09:25:02.626Z,18.37
2018-12-16T09:30:08.177Z,20.30
2018-12-16T09:35:10.648Z,24.53
2018-12-16T09:40:13.148Z,20.50
2018-12-16T09:45:15.622Z,17.60
2018-12-16T09:50:18.098Z,17.17
2018-12-16T09:55:20.592Z,16.17
2018-12-16T10:00:23.196Z,15.43
2018-12-16T10:05:25.845Z,16.93
2018-12-16T10:10:28.348Z,20.33
2018-12-16T10:15:30.820Z,18.60
2018-12-16T10:20:33.492Z,16.00
2018-12-16T10:25:36.093Z,14.93
2018-12-16T10:30:38.566Z,16.13
2018-12-16T10:35:41.029Z,17.47
2018-12-16T10:40:43.692Z,15.73
2018-12-16T10:45:46.314Z,16.80
2018-12-16T10:50:48.865Z,15.40
2018-12-16T10:55:51.365Z,16.03
2018-12-16T11:00:59.654Z,17.23
2018-12-16T11:06:03.589Z,18.43
2018-12-16T11:11:07.299Z,17.03
2018-12-16T11:16:10.843Z,18.10
2018-12-16T11:21:14.335Z,16.90
2018-12-16T11:26:18.132Z,18.40
2018-12-16T11:36:38.940Z,15.93
2018-12-16T11:41:41.432Z,17.10
2018-12-16T11:46:44.859Z,21.93
2018-12-16T12:01:23.750Z,17.13
2018-12-16T12:06:26.211Z,18.13
2018-12-16T12:11:28.660Z,16.03
2018-12-16T12:16:31.116Z,16.63
2018-12-16T12:21:33.571Z,16.83
2018-12-16T12:26:36.045Z,17.03
2018-12-16T12:31:38.497Z,20.50
2018-12-16T12:36:41.024Z,19.13
2018-12-16T12:41:43.484Z,18.77
2018-12-16T12:46:45.936Z,20.47
2018-12-16T12:51:48.408Z,21.03
2018-12-16T12:56:50.865Z,20.43
2018-12-16T13:01:53.324Z,20.30
2018-12-16T13:06:55.785Z,23.00
2018-12-16T13:11:58.248Z,22.93
2018-12-16T13:17:00.707Z,20.30
2018-12-16T13:22:03.159Z,19.33
2018-12-16T13:27:05.620Z,22.87
2018-12-16T13:32:08.102Z,18.97
2018-12-16T13:37:10.552Z,21.27
2018-12-16T13:42:13.016Z,22.17
2018-12-16T13:47:15.511Z,26.67
2018-12-16T13:52:18.040Z,19.47
2018-12-16T13:57:20.484Z,21.30
2018-12-16T14:02:22.948Z,24.13
2018-12-16T14:07:25.472Z,22.97
2018-12-16T14:12:27.929Z,22.63
2018-12-16T14:17:30.416Z,29.37
2018-12-16T14:22:32.873Z,23.90
2018-12-16T14:27:35.367Z,21.43
2018-12-16T14:32:37.826Z,22.37
2018-12-16T14:37:40.342Z,23.33
2018-12-16T14:42:42.800Z,24.37
2018-12-16T14:47:45.667Z,26.87
2018-12-16T14:52:48.149Z,26.27
2018-12-16T14:57:50.634Z,22.67
2018-12-16T15:02:53.101Z,25.47
2018-12-16T15:07:55.588Z,28.63
2018-12-16T15:12:58.165Z,25.43
2018-12-16T15:18:00.753Z,28.83
2018-12-16T15:23:03.251Z,31.07
2018-12-16T15:28:05.800Z,25.20
2018-12-16T15:33:08.308Z,26.57
2018-12-16T15:38:10.834Z,26.37
2018-12-16T15:43:13.343Z,30.57
2018-12-16T15:48:16.803Z,25.57
2018-12-16T15:53:19.391Z,25.00
2018-12-16T15:58:21.865Z,30.43
2018-12-16T16:03:24.328Z,28.00
2018-12-16T16:08:26.840Z,27.93
2018-12-16T16:13:29.298Z,27.70
2018-12-16T16:18:31.761Z,29.53
2018-12-16T16:23:34.360Z,24.13
2018-12-16T16:28:37.028Z,27.87
2018-12-16T16:33:39.513Z,27.40
2018-12-16T16:38:41.981Z,28.80
2018-12-16T16:43:44.473Z,29.87
2018-12-16T16:48:46.927Z,28.37
2018-12-16T16:53:49.393Z,23.83
2018-12-16T16:58:51.856Z,25.27
2018-12-16T17:03:54.444Z,25.20
2018-12-16T17:08:56.903Z,25.53
2018-12-16T17:13:59.712Z,26.37
2018-12-16T17:19:02.680Z,25.90
2018-12-16T17:24:05.199Z,26.83
2018-12-16T17:29:07.995Z,20.20
2018-12-16T17:34:10.549Z,24.17
2018-12-16T17:39:13.131Z,23.50
2018-12-16T17:44:17.213Z,26.00
2018-12-16T17:49:19.733Z,21.87
2018-12-16T17:54:22.202Z,24.87
2018-12-16T17:59:24.672Z,24.83
2018-12-16T18:04:27.216Z,22.27
2018-12-16T18:09:29.794Z,23.73
2018-12-16T18:14:32.264Z,24.80
2018-12-16T18:19:34.742Z,23.17
2018-12-16T18:24:37.248Z,24.43
2018-12-16T18:29:39.805Z,20.53
2018-12-16T18:34:42.303Z,19.87
2018-12-16T18:39:44.784Z,20.67
2018-12-16T18:44:47.632Z,20.00
2018-12-16T18:49:50.078Z,22.03
2018-12-16T18:54:52.543Z,21.43
2018-12-16T18:59:55.060Z,22.17
2018-12-16T19:04:57.528Z,24.60
2018-12-16T19:10:00.032Z,25.10
2018-12-16T19:15:02.820Z,33.00
2018-12-16T19:20:05.462Z,26.90
2018-12-16T19:25:08.072Z,26.63
2018-12-16T19:30:10.801Z,33.73
2018-12-16T19:35:13.281Z,25.73
2018-12-16T19:40:15.740Z,27.70
2018-12-16T19:45:18.297Z,23.53
2018-12-16T19:50:20.833Z,26.07
2018-12-16T19:55:23.629Z,22.73
2018-12-16T20:00:26.139Z,27.87
2018-12-16T20:05:28.757Z,25.57
2018-12-16T20:10:31.215Z,22.77
2018-12-16T20:15:33.688Z,25.30
2018-12-16T20:20:36.148Z,23.47
2018-12-16T20:25:38.635Z,24.57
2018-12-16T20:30:41.132Z,26.23
2018-12-16T20:35:43.737Z,44.80
2018-12-16T20:40:46.428Z,39.00
2018-12-16T20:45:48.997Z,36.47
2018-12-16T20:50:51.477Z,36.97
2018-12-16T20:55:53.981Z,27.57
2018-12-16T21:00:56.489Z,46.47
2018-12-16T21:05:58.989Z,31.53
2018-12-16T21:11:03.412Z,22.00
2018-12-16T21:16:11.681Z,22.20
2018-12-16T21:21:14.267Z,24.37
2018-12-16T21:26:16.805Z,25.13
2018-12-16T21:31:19.360Z,23.97
2018-12-16T21:36:21.832Z,24.83
2018-12-16T21:41:24.422Z,20.83
2018-12-16T21:46:26.905Z,24.33
2018-12-16T21:51:29.375Z,24.57
2018-12-16T21:56:31.827Z,26.33
2018-12-16T22:01:34.297Z,23.70
2018-12-16T22:06:36.758Z,22.33
2018-12-16T22:11:39.216Z,21.83
2018-12-16T22:16:41.676Z,18.30
2018-12-16T22:21:44.148Z,22.47
2018-12-16T22:26:46.656Z,19.20
2018-12-16T22:31:49.261Z,19.50
2018-12-16T22:36:51.716Z,19.27
2018-12-16T22:41:54.228Z,20.47
2018-12-16T22:46:56.696Z,17.67
2018-12-16T22:51:59.161Z,21.00
2018-12-16T22:57:01.640Z,16.13
2018-12-16T23:02:04.356Z,21.13
2018-12-16T23:07:06.852Z,20.23
2018-12-16T23:12:09.352Z,17.43
2018-12-16T23:17:11.812Z,19.40
2018-12-16T23:22:14.459Z,20.53
2018-12-16T23:27:16.928Z,19.57
2018-12-16T23:32:19.428Z,20.83
2018-12-16T23:37:21.935Z,21.87
2018-12-16T23:42:24.396Z,18.00
2018-12-16T23:47:26.865Z,19.80
2018-12-16T23:52:29.337Z,19.60
2018-12-16T23:57:31.788Z,20.70
